Date,TemperatureHighF,TemperatureAvgF,TemperatureLowF,DewpointHighF,DewpointAvgF,DewpointLowF,HumidityHigh,HumidityAvg,HumidityLow,PressureMaxIn,PressureMinIn,WindSpeedMaxMPH,WindSpeedAvgMPH,GustSpeedMaxMPH,PrecipitationSumIn
2013-8-1,82.8,69.9,56.5,62.5,56.8,50.7,82,65,48,30.04,29.86,0,0,0,0.00
2013-8-2,78.4,69.2,59.4,61.8,56.3,51.8,83,65,42,30.04,29.86,0,0,0,0.00
2013-8-3,78.0,67.5,56.5,59.3,54.5,50.8,86,66,41,30.19,30.04,0,0,0,0.00
2013-8-4,78.1,66.1,56.1,62.8,55.3,51.0,86,69,48,30.22,29.99,0,0,0,0.00
2013-8-5,81.3,72.7,61.5,69.7,63.9,55.6,92,74,59,30.01,29.79,0,0,0,0.00
2013-8-6,84.2,69.6,58.6,70.6,61.9,55.3,90,78,55,29.85,29.67,0,0,0,0.00
2013-8-7,76.8,66.8,60.1,59.5,56.7,52.3,93,72,45,30.03,29.79,0,0,0,0.00
2013-8-8,76.8,65.4,57.6,61.6,57.6,53.1,86,77,58,30.06,29.98,0,0,0,0.00
2013-8-9,74.7,66.3,58.8,60.4,56.1,51.2,92,71,50,30.12,30.00,0,0,0,0.00
2013-8-10,76.6,68.0,60.6,58.3,56.0,54.3,84,66,49,30.19,30.07,0,0,0,0.00
2013-8-11,82.0,71.1,64.8,68.5,62.2,57.3,85,74,57,30.09,29.99,0,0,0,0.00
2013-8-12,78.4,69.4,60.1,62.3,58.7,54.5,90,70,49,30.06,30.00,0,0,0,0.00
2013-8-13,75.7,66.4,57.4,57.4,53.4,48.4,87,65,41,30.19,30.06,0,0,0,0.00
2013-8-14,77.7,65.9,55.2,58.6,53.4,50.1,87,66,43,30.20,30.09,0,0,0,0.00
2013-8-15,78.6,66.4,54.8,63.3,56.1,49.6,85,70,50,30.13,30.07,0,0,0,0.00
2013-8-16,80.1,68.6,56.9,62.6,57.2,52.2,87,68,46,30.19,30.12,0,0,0,0.00
2013-8-17,82.2,69.1,56.9,62.7,57.3,52.4,86,68,47,30.19,30.09,0,0,0,0.00
2013-8-18,84.7,70.3,57.8,63.9,58.1,52.9,84,67,48,30.13,30.00,0,0,0,0.00
2013-8-19,87.1,74.3,64.5,72.5,65.0,57.9,82,73,60,30.03,29.90,0,0,0,0.00
2013-8-20,89.8,78.2,69.6,76.4,70.1,64.8,87,77,63,29.92,29.86,0,0,0,0.00
2013-8-21,87.3,78.2,70.9,77.3,71.9,64.4,92,81,68,30.00,29.84,0,0,0,0.00
2013-8-22,85.8,75.1,66.0,64.3,57.4,52.0,74,55,38,30.11,30.00,0,0,0,0.00
2013-8-23,86.7,73.2,62.1,70.5,61.9,51.4,83,68,57,30.14,30.03,0,0,0,0.00
2013-8-24,89.2,78.2,70.0,74.6,69.9,65.6,87,76,60,30.05,29.93,0,0,0,0.00
2013-8-25,94.8,84.3,76.1,78.3,73.9,70.4,84,72,57,30.00,29.93,0,0,0,0.00
2013-8-26,94.3,84.0,75.6,80.1,75.5,72.0,89,76,61,29.98,29.84,0,0,0,0.00
2013-8-27,92.5,82.9,75.0,80.2,75.3,71.3,88,78,66,29.92,29.80,0,0,0,0.00
2013-8-28,92.1,80.6,72.7,77.7,72.9,69.8,93,78,59,30.01,29.91,0,0,0,0.00
2013-8-29,94.3,82.7,75.0,78.9,73.3,68.8,92,75,54,30.00,29.85,0,0,0,0.00
2013-8-30,84.7,76.5,71.2,71.3,67.9,63.6,88,75,59,29.94,29.83,0,0,0,0.00
2013-8-31,89.2,74.3,64.9,72.9,66.2,61.0,89,77,57,29.90,29.73,0,0,0,0.00